sensor_id;sensor_type;location;lat;lon;timestamp;P1;durP1;ratioP1;P2;durP2;ratioP2
13439;SDS011;6792;57.698;11.946;2023-09-19T00:00:20;11.20;;;9.08;;
13439;SDS011;6792;57.698;11.946;2023-09-19T00:02:55;15.45;;;10.10;;
13439;SDS011;6792;57.698;11.946;2023-09-19T00:05:25;16.12;;;10.08;;
13439;SDS011;6792;57.698;11.946;2023-09-19T00:07:55;11.48;;;9.68;;
13439;SDS011;6792;57.698;11.946;2023-09-19T00:10:25;17.95;;;9.95;;
13439;SDS011;6792;57.698;11.946;2023-09-19T00:12:56;14.55;;;9.05;;
13439;SDS011;6792;57.698;11.946;2023-09-19T00:15:26;14.53;;;9.25;;
13439;SDS011;6792;57.698;11.946;2023-09-19T00:17:56;13.55;;;8.80;;
13439;SDS011;6792;57.698;11.946;2023-09-19T00:20:25;13.60;;;9.60;;
13439;SDS011;6792;57.698;11.946;2023-09-19T00:22:56;15.93;;;10.08;;
13439;SDS011;6792;57.698;11.946;2023-09-19T00:28:06;11.97;;;8.95;;
13439;SDS011;6792;57.698;11.946;2023-09-19T00:30:36;12.93;;;9.05;;
13439;SDS011;6792;57.698;11.946;2023-09-19T00:33:05;13.22;;;8.40;;
13439;SDS011;6792;57.698;11.946;2023-09-19T00:35:34;11.90;;;9.55;;
13439;SDS011;6792;57.698;11.946;2023-09-19T00:38:03;12.25;;;9.00;;
13439;SDS011;6792;57.698;11.946;2023-09-19T00:40:33;13.55;;;9.55;;
13439;SDS011;6792;57.698;11.946;2023-09-19T00:43:03;13.85;;;9.58;;
13439;SDS011;6792;57.698;11.946;2023-09-19T00:45:32;13.08;;;9.38;;
13439;SDS011;6792;57.698;11.946;2023-09-19T00:48:03;12.47;;;9.18;;
13439;SDS011;6792;57.698;11.946;2023-09-19T00:50:35;12.85;;;8.70;;
13439;SDS011;6792;57.698;11.946;2023-09-19T00:53:05;11.68;;;8.50;;
13439;SDS011;6792;57.698;11.946;2023-09-19T00:55:36;10.55;;;8.63;;
13439;SDS011;6792;57.698;11.946;2023-09-19T00:58:06;13.40;;;8.93;;
13439;SDS011;6792;57.698;11.946;2023-09-19T01:00:36;11.22;;;8.73;;
13439;SDS011;6792;57.698;11.946;2023-09-19T01:03:06;10.00;;;8.48;;
13439;SDS011;6792;57.698;11.946;2023-09-19T01:05:36;10.70;;;8.55;;
13439;SDS011;6792;57.698;11.946;2023-09-19T01:08:05;9.55;;;7.55;;
13439;SDS011;6792;57.698;11.946;2023-09-19T01:10:34;12.82;;;8.25;;
13439;SDS011;6792;57.698;11.946;2023-09-19T01:13:08;12.15;;;7.95;;
13439;SDS011;6792;57.698;11.946;2023-09-19T01:15:40;9.58;;;8.23;;
13439;SDS011;6792;57.698;11.946;2023-09-19T01:18:14;11.12;;;9.03;;
13439;SDS011;6792;57.698;11.946;2023-09-19T01:20:47;13.03;;;8.85;;
13439;SDS011;6792;57.698;11.946;2023-09-19T01:23:21;12.65;;;8.88;;
13439;SDS011;6792;57.698;11.946;2023-09-19T01:26:05;9.98;;;8.78;;
13439;SDS011;6792;57.698;11.946;2023-09-19T01:28:54;9.33;;;8.40;;
13439;SDS011;6792;57.698;11.946;2023-09-19T01:31:29;12.70;;;8.78;;
13439;SDS011;6792;57.698;11.946;2023-09-19T01:34:02;10.53;;;8.20;;
13439;SDS011;6792;57.698;11.946;2023-09-19T01:36:33;10.68;;;8.60;;
13439;SDS011;6792;57.698;11.946;2023-09-19T01:39:05;10.43;;;8.05;;
13439;SDS011;6792;57.698;11.946;2023-09-19T01:41:48;11.20;;;8.83;;
13439;SDS011;6792;57.698;11.946;2023-09-19T01:44:21;10.90;;;8.48;;
13439;SDS011;6792;57.698;11.946;2023-09-19T01:46:52;10.80;;;8.05;;
13439;SDS011;6792;57.698;11.946;2023-09-19T01:49:27;12.07;;;8.78;;
13439;SDS011;6792;57.698;11.946;2023-09-19T01:52:00;11.10;;;8.28;;
13439;SDS011;6792;57.698;11.946;2023-09-19T01:54:33;12.73;;;8.85;;
13439;SDS011;6792;57.698;11.946;2023-09-19T01:57:07;11.80;;;7.92;;
13439;SDS011;6792;57.698;11.946;2023-09-19T01:59:41;13.48;;;8.88;;
13439;SDS011;6792;57.698;11.946;2023-09-19T02:02:13;9.73;;;8.68;;
13439;SDS011;6792;57.698;11.946;2023-09-19T02:04:44;13.08;;;8.70;;
13439;SDS011;6792;57.698;11.946;2023-09-19T02:07:14;10.25;;;9.13;;
13439;SDS011;6792;57.698;11.946;2023-09-19T02:09:43;10.05;;;8.50;;
13439;SDS011;6792;57.698;11.946;2023-09-19T02:12:14;14.55;;;9.58;;
13439;SDS011;6792;57.698;11.946;2023-09-19T02:14:43;11.15;;;8.33;;
13439;SDS011;6792;57.698;11.946;2023-09-19T02:17:12;11.65;;;8.63;;
13439;SDS011;6792;57.698;11.946;2023-09-19T02:19:41;11.93;;;8.53;;
13439;SDS011;6792;57.698;11.946;2023-09-19T02:22:10;12.47;;;9.25;;
13439;SDS011;6792;57.698;11.946;2023-09-19T02:24:40;13.53;;;8.80;;
13439;SDS011;6792;57.698;11.946;2023-09-19T02:27:09;11.73;;;9.53;;
13439;SDS011;6792;57.698;11.946;2023-09-19T02:29:40;14.50;;;8.68;;
13439;SDS011;6792;57.698;11.946;2023-09-19T02:32:09;11.80;;;8.48;;
13439;SDS011;6792;57.698;11.946;2023-09-19T02:34:38;10.68;;;8.45;;
13439;SDS011;6792;57.698;11.946;2023-09-19T02:37:08;10.28;;;8.00;;
13439;SDS011;6792;57.698;11.946;2023-09-19T02:39:39;12.50;;;8.25;;
13439;SDS011;6792;57.698;11.946;2023-09-19T02:42:08;9.30;;;7.17;;
13439;SDS011;6792;57.698;11.946;2023-09-19T02:44:37;10.53;;;6.17;;
13439;SDS011;6792;57.698;11.946;2023-09-19T02:47:06;10.82;;;6.70;;
13439;SDS011;6792;57.698;11.946;2023-09-19T02:49:35;10.98;;;5.72;;
13439;SDS011;6792;57.698;11.946;2023-09-19T02:52:05;8.80;;;5.30;;
13439;SDS011;6792;57.698;11.946;2023-09-19T02:54:34;7.15;;;4.83;;
13439;SDS011;6792;57.698;11.946;2023-09-19T02:57:04;9.20;;;4.90;;
13439;SDS011;6792;57.698;11.946;2023-09-19T02:59:33;7.42;;;4.90;;
13439;SDS011;6792;57.698;11.946;2023-09-19T03:02:03;6.92;;;4.60;;
13439;SDS011;6792;57.698;11.946;2023-09-19T03:04:32;10.80;;;4.62;;
13439;SDS011;6792;57.698;11.946;2023-09-19T03:07:02;7.65;;;3.95;;
13439;SDS011;6792;57.698;11.946;2023-09-19T03:09:32;10.53;;;3.98;;
13439;SDS011;6792;57.698;11.946;2023-09-19T03:12:01;10.03;;;3.72;;
13439;SDS011;6792;57.698;11.946;2023-09-19T03:14:32;6.72;;;3.30;;
13439;SDS011;6792;57.698;11.946;2023-09-19T03:17:01;10.82;;;3.40;;
13439;SDS011;6792;57.698;11.946;2023-09-19T03:19:31;10.40;;;3.45;;
13439;SDS011;6792;57.698;11.946;2023-09-19T03:22:00;7.37;;;3.40;;
13439;SDS011;6792;57.698;11.946;2023-09-19T03:24:29;7.00;;;3.12;;
13439;SDS011;6792;57.698;11.946;2023-09-19T03:26:59;9.08;;;2.87;;
13439;SDS011;6792;57.698;11.946;2023-09-19T03:29:29;5.12;;;2.60;;
13439;SDS011;6792;57.698;11.946;2023-09-19T03:31:58;7.80;;;2.67;;
13439;SDS011;6792;57.698;11.946;2023-09-19T03:34:28;4.85;;;2.65;;
13439;SDS011;6792;57.698;11.946;2023-09-19T03:36:57;6.72;;;2.52;;
13439;SDS011;6792;57.698;11.946;2023-09-19T03:39:26;6.90;;;2.50;;
13439;SDS011;6792;57.698;11.946;2023-09-19T03:41:55;9.20;;;2.80;;
13439;SDS011;6792;57.698;11.946;2023-09-19T03:44:24;5.92;;;2.50;;
13439;SDS011;6792;57.698;11.946;2023-09-19T03:46:53;9.28;;;2.40;;
13439;SDS011;6792;57.698;11.946;2023-09-19T03:49:23;11.50;;;2.65;;
13439;SDS011;6792;57.698;11.946;2023-09-19T03:51:52;7.87;;;1.62;;
13439;SDS011;6792;57.698;11.946;2023-09-19T03:54:21;5.28;;;1.60;;
13439;SDS011;6792;57.698;11.946;2023-09-19T03:56:50;8.80;;;2.00;;
13439;SDS011;6792;57.698;11.946;2023-09-19T03:59:19;8.40;;;1.87;;
13439;SDS011;6792;57.698;11.946;2023-09-19T04:01:48;5.75;;;1.85;;
13439;SDS011;6792;57.698;11.946;2023-09-19T04:04:19;6.67;;;1.85;;
13439;SDS011;6792;57.698;11.946;2023-09-19T04:06:49;8.45;;;2.08;;
13439;SDS011;6792;57.698;11.946;2023-09-19T04:09:19;5.87;;;1.80;;
13439;SDS011;6792;57.698;11.946;2023-09-19T04:11:48;5.53;;;2.17;;
13439;SDS011;6792;57.698;11.946;2023-09-19T04:14:18;9.18;;;1.90;;
13439;SDS011;6792;57.698;11.946;2023-09-19T04:16:47;6.72;;;1.95;;
13439;SDS011;6792;57.698;11.946;2023-09-19T04:19:16;11.48;;;2.30;;
13439;SDS011;6792;57.698;11.946;2023-09-19T04:21:45;7.60;;;2.02;;
13439;SDS011;6792;57.698;11.946;2023-09-19T04:24:14;7.60;;;2.62;;
13439;SDS011;6792;57.698;11.946;2023-09-19T04:26:44;7.25;;;2.25;;
13439;SDS011;6792;57.698;11.946;2023-09-19T04:29:14;8.48;;;2.25;;
13439;SDS011;6792;57.698;11.946;2023-09-19T04:31:45;6.33;;;2.20;;
13439;SDS011;6792;57.698;11.946;2023-09-19T04:34:24;6.95;;;2.08;;
13439;SDS011;6792;57.698;11.946;2023-09-19T04:36:53;9.85;;;2.10;;
13439;SDS011;6792;57.698;11.946;2023-09-19T04:39:24;9.08;;;2.20;;
13439;SDS011;6792;57.698;11.946;2023-09-19T04:41:53;7.60;;;1.67;;
13439;SDS011;6792;57.698;11.946;2023-09-19T04:44:23;7.80;;;1.72;;
13439;SDS011;6792;57.698;11.946;2023-09-19T04:46:51;8.83;;;2.00;;
13439;SDS011;6792;57.698;11.946;2023-09-19T04:49:20;6.75;;;1.72;;
13439;SDS011;6792;57.698;11.946;2023-09-19T04:51:49;9.20;;;1.45;;
13439;SDS011;6792;57.698;11.946;2023-09-19T04:54:20;6.60;;;1.30;;
13439;SDS011;6792;57.698;11.946;2023-09-19T04:56:49;5.22;;;1.05;;
13439;SDS011;6792;57.698;11.946;2023-09-19T04:59:18;3.90;;;1.02;;
13439;SDS011;6792;57.698;11.946;2023-09-19T05:01:47;3.20;;;0.85;;
13439;SDS011;6792;57.698;11.946;2023-09-19T05:04:16;4.03;;;1.02;;
13439;SDS011;6792;57.698;11.946;2023-09-19T05:06:53;3.83;;;0.70;;
13439;SDS011;6792;57.698;11.946;2023-09-19T05:09:22;3.42;;;1.15;;
13439;SDS011;6792;57.698;11.946;2023-09-19T05:11:51;5.70;;;1.10;;
13439;SDS011;6792;57.698;11.946;2023-09-19T05:14:20;5.37;;;1.20;;
13439;SDS011;6792;57.698;11.946;2023-09-19T05:16:49;3.52;;;0.80;;
13439;SDS011;6792;57.698;11.946;2023-09-19T05:19:19;7.75;;;0.90;;
13439;SDS011;6792;57.698;11.946;2023-09-19T05:21:48;5.35;;;0.75;;
13439;SDS011;6792;57.698;11.946;2023-09-19T05:24:18;8.68;;;1.10;;
13439;SDS011;6792;57.698;11.946;2023-09-19T05:26:53;2.92;;;0.90;;
13439;SDS011;6792;57.698;11.946;2023-09-19T05:29:25;5.03;;;0.88;;
13439;SDS011;6792;57.698;11.946;2023-09-19T05:31:55;4.53;;;0.88;;
13439;SDS011;6792;57.698;11.946;2023-09-19T05:34:24;4.33;;;0.90;;
13439;SDS011;6792;57.698;11.946;2023-09-19T05:37:04;4.42;;;1.10;;
13439;SDS011;6792;57.698;11.946;2023-09-19T05:39:38;4.53;;;1.10;;
13439;SDS011;6792;57.698;11.946;2023-09-19T05:42:10;7.33;;;1.10;;
13439;SDS011;6792;57.698;11.946;2023-09-19T05:44:40;7.28;;;1.30;;
13439;SDS011;6792;57.698;11.946;2023-09-19T05:47:21;2.98;;;1.00;;
13439;SDS011;6792;57.698;11.946;2023-09-19T05:49:51;2.75;;;1.20;;
13439;SDS011;6792;57.698;11.946;2023-09-19T05:52:23;4.10;;;1.10;;
13439;SDS011;6792;57.698;11.946;2023-09-19T05:54:53;4.35;;;1.15;;
13439;SDS011;6792;57.698;11.946;2023-09-19T05:57:23;1.87;;;0.88;;
13439;SDS011;6792;57.698;11.946;2023-09-19T05:59:54;4.53;;;1.07;;
13439;SDS011;6792;57.698;11.946;2023-09-19T06:02:25;3.70;;;1.35;;
13439;SDS011;6792;57.698;11.946;2023-09-19T06:04:57;3.93;;;1.07;;
13439;SDS011;6792;57.698;11.946;2023-09-19T06:07:35;3.35;;;1.05;;
13439;SDS011;6792;57.698;11.946;2023-09-19T06:10:06;3.77;;;1.00;;
13439;SDS011;6792;57.698;11.946;2023-09-19T06:12:47;4.55;;;0.98;;
13439;SDS011;6792;57.698;11.946;2023-09-19T06:15:17;3.77;;;1.05;;
13439;SDS011;6792;57.698;11.946;2023-09-19T06:17:52;5.30;;;0.82;;
13439;SDS011;6792;57.698;11.946;2023-09-19T06:20:29;3.62;;;0.78;;
13439;SDS011;6792;57.698;11.946;2023-09-19T06:22:59;3.83;;;0.85;;
13439;SDS011;6792;57.698;11.946;2023-09-19T06:25:30;4.72;;;0.65;;
13439;SDS011;6792;57.698;11.946;2023-09-19T06:27:59;3.33;;;0.80;;
13439;SDS011;6792;57.698;11.946;2023-09-19T06:30:30;2.42;;;0.60;;
13439;SDS011;6792;57.698;11.946;2023-09-19T06:33:01;3.47;;;0.57;;
13439;SDS011;6792;57.698;11.946;2023-09-19T06:35:31;2.95;;;0.80;;
13439;SDS011;6792;57.698;11.946;2023-09-19T06:38:02;2.17;;;0.70;;
13439;SDS011;6792;57.698;11.946;2023-09-19T06:40:33;2.37;;;0.78;;
13439;SDS011;6792;57.698;11.946;2023-09-19T06:43:05;3.47;;;0.80;;
13439;SDS011;6792;57.698;11.946;2023-09-19T06:45:35;4.62;;;0.72;;
13439;SDS011;6792;57.698;11.946;2023-09-19T06:48:12;4.50;;;0.75;;
13439;SDS011;6792;57.698;11.946;2023-09-19T06:50:42;7.78;;;0.90;;
13439;SDS011;6792;57.698;11.946;2023-09-19T06:53:11;6.67;;;1.30;;
13439;SDS011;6792;57.698;11.946;2023-09-19T06:55:40;4.78;;;0.98;;
13439;SDS011;6792;57.698;11.946;2023-09-19T06:58:10;3.87;;;1.05;;
13439;SDS011;6792;57.698;11.946;2023-09-19T07:00:39;2.67;;;1.20;;
13439;SDS011;6792;57.698;11.946;2023-09-19T07:03:08;3.67;;;1.15;;
13439;SDS011;6792;57.698;11.946;2023-09-19T07:05:38;2.72;;;0.78;;
13439;SDS011;6792;57.698;11.946;2023-09-19T07:08:09;4.30;;;1.05;;
13439;SDS011;6792;57.698;11.946;2023-09-19T07:10:39;4.30;;;1.07;;
13439;SDS011;6792;57.698;11.946;2023-09-19T07:13:10;7.72;;;1.30;;
13439;SDS011;6792;57.698;11.946;2023-09-19T07:15:39;4.37;;;0.90;;
13439;SDS011;6792;57.698;11.946;2023-09-19T07:18:10;4.20;;;1.20;;
13439;SDS011;6792;57.698;11.946;2023-09-19T07:20:41;5.72;;;1.12;;
13439;SDS011;6792;57.698;11.946;2023-09-19T07:23:13;4.30;;;0.90;;
13439;SDS011;6792;57.698;11.946;2023-09-19T07:25:42;3.40;;;0.98;;
13439;SDS011;6792;57.698;11.946;2023-09-19T07:28:12;6.75;;;1.22;;
13439;SDS011;6792;57.698;11.946;2023-09-19T07:30:42;8.63;;;1.30;;
13439;SDS011;6792;57.698;11.946;2023-09-19T07:33:11;6.17;;;1.22;;
13439;SDS011;6792;57.698;11.946;2023-09-19T07:35:40;5.67;;;1.10;;
13439;SDS011;6792;57.698;11.946;2023-09-19T07:38:12;6.10;;;1.42;;
13439;SDS011;6792;57.698;11.946;2023-09-19T07:40:41;3.80;;;1.45;;
13439;SDS011;6792;57.698;11.946;2023-09-19T07:43:10;5.37;;;1.02;;
13439;SDS011;6792;57.698;11.946;2023-09-19T07:45:39;6.87;;;1.35;;
13439;SDS011;6792;57.698;11.946;2023-09-19T07:48:08;4.30;;;0.90;;
13439;SDS011;6792;57.698;11.946;2023-09-19T07:50:39;2.27;;;0.80;;
13439;SDS011;6792;57.698;11.946;2023-09-19T07:53:10;3.58;;;1.10;;
13439;SDS011;6792;57.698;11.946;2023-09-19T07:55:40;6.15;;;1.20;;
13439;SDS011;6792;57.698;11.946;2023-09-19T07:58:10;5.92;;;1.55;;
13439;SDS011;6792;57.698;11.946;2023-09-19T08:00:39;4.80;;;1.30;;
13439;SDS011;6792;57.698;11.946;2023-09-19T08:03:08;7.33;;;1.47;;
13439;SDS011;6792;57.698;11.946;2023-09-19T08:05:39;7.72;;;1.20;;
13439;SDS011;6792;57.698;11.946;2023-09-19T08:08:09;4.22;;;1.00;;
13439;SDS011;6792;57.698;11.946;2023-09-19T08:10:39;7.17;;;1.30;;
13439;SDS011;6792;57.698;11.946;2023-09-19T08:13:09;9.88;;;1.50;;
13439;SDS011;6792;57.698;11.946;2023-09-19T08:15:43;6.12;;;1.40;;
13439;SDS011;6792;57.698;11.946;2023-09-19T08:18:12;4.70;;;1.50;;
13439;SDS011;6792;57.698;11.946;2023-09-19T08:20:50;10.38;;;1.60;;
13439;SDS011;6792;57.698;11.946;2023-09-19T08:23:20;9.88;;;1.52;;
13439;SDS011;6792;57.698;11.946;2023-09-19T08:25:49;3.37;;;1.40;;
13439;SDS011;6792;57.698;11.946;2023-09-19T08:28:18;7.87;;;1.70;;
13439;SDS011;6792;57.698;11.946;2023-09-19T08:30:49;8.75;;;1.67;;
13439;SDS011;6792;57.698;11.946;2023-09-19T08:33:19;9.88;;;1.62;;
13439;SDS011;6792;57.698;11.946;2023-09-19T08:35:48;5.90;;;1.22;;
13439;SDS011;6792;57.698;11.946;2023-09-19T08:38:17;3.12;;;1.37;;
13439;SDS011;6792;57.698;11.946;2023-09-19T08:40:46;6.62;;;1.32;;
13439;SDS011;6792;57.698;11.946;2023-09-19T08:43:16;8.00;;;1.70;;
13439;SDS011;6792;57.698;11.946;2023-09-19T08:45:46;7.08;;;1.30;;
13439;SDS011;6792;57.698;11.946;2023-09-19T08:48:17;5.72;;;1.20;;
13439;SDS011;6792;57.698;11.946;2023-09-19T08:50:52;6.97;;;1.15;;
13439;SDS011;6792;57.698;11.946;2023-09-19T08:53:26;4.65;;;1.00;;
13439;SDS011;6792;57.698;11.946;2023-09-19T08:56:00;3.22;;;1.10;;
13439;SDS011;6792;57.698;11.946;2023-09-19T08:58:31;7.58;;;1.25;;
13439;SDS011;6792;57.698;11.946;2023-09-19T09:01:03;4.85;;;1.27;;
13439;SDS011;6792;57.698;11.946;2023-09-19T09:03:35;5.53;;;1.17;;
13439;SDS011;6792;57.698;11.946;2023-09-19T09:06:05;5.87;;;0.98;;
13439;SDS011;6792;57.698;11.946;2023-09-19T09:08:37;4.12;;;1.05;;
13439;SDS011;6792;57.698;11.946;2023-09-19T09:11:08;4.15;;;1.00;;
13439;SDS011;6792;57.698;11.946;2023-09-19T09:13:37;4.33;;;0.98;;
13439;SDS011;6792;57.698;11.946;2023-09-19T09:16:07;4.42;;;0.72;;
13439;SDS011;6792;57.698;11.946;2023-09-19T09:18:36;4.28;;;1.00;;
13439;SDS011;6792;57.698;11.946;2023-09-19T09:21:06;1.77;;;0.82;;
13439;SDS011;6792;57.698;11.946;2023-09-19T09:23:35;1.52;;;0.72;;
13439;SDS011;6792;57.698;11.946;2023-09-19T09:26:05;5.70;;;0.93;;
13439;SDS011;6792;57.698;11.946;2023-09-19T09:28:35;1.35;;;0.60;;
13439;SDS011;6792;57.698;11.946;2023-09-19T09:31:06;3.75;;;0.60;;
13439;SDS011;6792;57.698;11.946;2023-09-19T09:33:38;6.28;;;0.90;;
13439;SDS011;6792;57.698;11.946;2023-09-19T09:36:09;4.17;;;0.88;;
13439;SDS011;6792;57.698;11.946;2023-09-19T09:41:21;2.67;;;0.70;;
13439;SDS011;6792;57.698;11.946;2023-09-19T09:43:55;4.78;;;0.95;;
13439;SDS011;6792;57.698;11.946;2023-09-19T09:46:26;3.60;;;1.00;;
13439;SDS011;6792;57.698;11.946;2023-09-19T09:49:13;3.12;;;0.53;;
13439;SDS011;6792;57.698;11.946;2023-09-19T09:51:48;3.12;;;0.88;;
13439;SDS011;6792;57.698;11.946;2023-09-19T09:54:26;5.45;;;0.70;;
13439;SDS011;6792;57.698;11.946;2023-09-19T09:56:58;3.45;;;0.82;;
13439;SDS011;6792;57.698;11.946;2023-09-19T09:59:48;5.22;;;0.85;;
13439;SDS011;6792;57.698;11.946;2023-09-19T10:02:20;5.20;;;0.47;;
13439;SDS011;6792;57.698;11.946;2023-09-19T10:04:52;2.05;;;0.60;;
13439;SDS011;6792;57.698;11.946;2023-09-19T10:07:27;2.85;;;1.45;;
13439;SDS011;6792;57.698;11.946;2023-09-19T10:10:01;4.08;;;0.60;;
13439;SDS011;6792;57.698;11.946;2023-09-19T10:12:42;4.12;;;0.78;;
13439;SDS011;6792;57.698;11.946;2023-09-19T10:15:15;1.98;;;0.75;;
13439;SDS011;6792;57.698;11.946;2023-09-19T10:17:47;2.65;;;0.80;;
13439;SDS011;6792;57.698;11.946;2023-09-19T10:20:18;3.33;;;0.68;;
13439;SDS011;6792;57.698;11.946;2023-09-19T10:23:03;2.47;;;0.50;;
13439;SDS011;6792;57.698;11.946;2023-09-19T10:25:38;2.70;;;0.70;;
13439;SDS011;6792;57.698;11.946;2023-09-19T10:28:08;4.67;;;0.55;;
13439;SDS011;6792;57.698;11.946;2023-09-19T10:30:41;1.90;;;0.53;;
13439;SDS011;6792;57.698;11.946;2023-09-19T10:33:11;1.80;;;0.72;;
13439;SDS011;6792;57.698;11.946;2023-09-19T10:35:42;3.85;;;0.80;;
13439;SDS011;6792;57.698;11.946;2023-09-19T10:38:12;1.45;;;0.70;;
13439;SDS011;6792;57.698;11.946;2023-09-19T10:40:43;1.85;;;0.60;;
13439;SDS011;6792;57.698;11.946;2023-09-19T10:43:15;3.40;;;0.60;;
13439;SDS011;6792;57.698;11.946;2023-09-19T10:45:45;3.72;;;0.50;;
13439;SDS011;6792;57.698;11.946;2023-09-19T10:48:16;5.60;;;0.90;;
13439;SDS011;6792;57.698;11.946;2023-09-19T10:50:48;5.55;;;0.85;;
13439;SDS011;6792;57.698;11.946;2023-09-19T10:53:18;4.87;;;0.85;;
13439;SDS011;6792;57.698;11.946;2023-09-19T10:55:50;5.95;;;0.70;;
13439;SDS011;6792;57.698;11.946;2023-09-19T10:58:25;4.95;;;0.80;;
13439;SDS011;6792;57.698;11.946;2023-09-19T11:00:56;2.90;;;0.60;;
13439;SDS011;6792;57.698;11.946;2023-09-19T11:03:29;2.70;;;0.60;;
13439;SDS011;6792;57.698;11.946;2023-09-19T11:06:03;5.30;;;0.62;;
13439;SDS011;6792;57.698;11.946;2023-09-19T11:08:58;2.92;;;0.60;;
13439;SDS011;6792;57.698;11.946;2023-09-19T11:11:40;4.42;;;1.00;;
13439;SDS011;6792;57.698;11.946;2023-09-19T11:14:15;5.50;;;0.80;;
13439;SDS011;6792;57.698;11.946;2023-09-19T11:20:23;6.47;;;1.07;;
13439;SDS011;6792;57.698;11.946;2023-09-19T11:23:20;2.15;;;0.72;;
13439;SDS011;6792;57.698;11.946;2023-09-19T11:25:52;5.00;;;1.00;;
13439;SDS011;6792;57.698;11.946;2023-09-19T11:28:34;4.85;;;0.85;;
13439;SDS011;6792;57.698;11.946;2023-09-19T11:34:40;7.15;;;0.88;;
13439;SDS011;6792;57.698;11.946;2023-09-19T11:40:39;1.30;;;0.70;;
13439;SDS011;6792;57.698;11.946;2023-09-19T11:43:30;4.20;;;0.50;;
13439;SDS011;6792;57.698;11.946;2023-09-19T11:46:03;1.98;;;0.53;;
13439;SDS011;6792;57.698;11.946;2023-09-19T11:48:35;2.52;;;0.53;;
13439;SDS011;6792;57.698;11.946;2023-09-19T11:51:11;2.20;;;0.40;;
13439;SDS011;6792;57.698;11.946;2023-09-19T11:53:53;2.00;;;0.60;;
13439;SDS011;6792;57.698;11.946;2023-09-19T11:56:25;1.65;;;0.42;;
13439;SDS011;6792;57.698;11.946;2023-09-19T11:58:55;1.07;;;0.42;;
13439;SDS011;6792;57.698;11.946;2023-09-19T12:01:28;2.30;;;0.47;;
13439;SDS011;6792;57.698;11.946;2023-09-19T12:03:59;5.67;;;0.78;;
13439;SDS011;6792;57.698;11.946;2023-09-19T12:06:30;2.33;;;0.40;;
13439;SDS011;6792;57.698;11.946;2023-09-19T12:09:00;2.90;;;0.70;;
13439;SDS011;6792;57.698;11.946;2023-09-19T12:11:31;3.98;;;1.17;;
13439;SDS011;6792;57.698;11.946;2023-09-19T12:14:02;4.22;;;0.70;;
13439;SDS011;6792;57.698;11.946;2023-09-19T12:16:31;4.42;;;0.98;;
13439;SDS011;6792;57.698;11.946;2023-09-19T12:19:18;3.02;;;0.70;;
13439;SDS011;6792;57.698;11.946;2023-09-19T12:21:54;2.72;;;0.72;;
13439;SDS011;6792;57.698;11.946;2023-09-19T12:24:26;4.12;;;1.02;;
13439;SDS011;6792;57.698;11.946;2023-09-19T12:27:00;2.65;;;1.05;;
13439;SDS011;6792;57.698;11.946;2023-09-19T12:29:32;4.12;;;0.80;;
13439;SDS011;6792;57.698;11.946;2023-09-19T12:32:11;2.95;;;0.62;;
13439;SDS011;6792;57.698;11.946;2023-09-19T12:34:41;2.05;;;0.65;;
13439;SDS011;6792;57.698;11.946;2023-09-19T12:37:13;3.55;;;0.60;;
13439;SDS011;6792;57.698;11.946;2023-09-19T12:39:45;3.20;;;0.93;;
13439;SDS011;6792;57.698;11.946;2023-09-19T12:42:17;1.77;;;0.70;;
13439;SDS011;6792;57.698;11.946;2023-09-19T12:44:49;6.05;;;0.90;;
13439;SDS011;6792;57.698;11.946;2023-09-19T12:47:21;6.35;;;1.07;;
13439;SDS011;6792;57.698;11.946;2023-09-19T12:50:06;3.60;;;0.65;;
13439;SDS011;6792;57.698;11.946;2023-09-19T12:52:44;3.92;;;0.93;;
13439;SDS011;6792;57.698;11.946;2023-09-19T12:55:21;2.52;;;0.65;;
13439;SDS011;6792;57.698;11.946;2023-09-19T12:57:58;4.85;;;1.00;;
13439;SDS011;6792;57.698;11.946;2023-09-19T13:00:36;2.62;;;0.70;;
13439;SDS011;6792;57.698;11.946;2023-09-19T13:03:12;5.40;;;1.02;;
13439;SDS011;6792;57.698;11.946;2023-09-19T13:05:49;4.30;;;1.05;;
13439;SDS011;6792;57.698;11.946;2023-09-19T13:08:23;4.97;;;1.62;;
13439;SDS011;6792;57.698;11.946;2023-09-19T13:11:05;1.67;;;0.57;;
13439;SDS011;6792;57.698;11.946;2023-09-19T13:13:40;7.05;;;0.80;;
13439;SDS011;6792;57.698;11.946;2023-09-19T13:16:12;4.35;;;0.62;;
13439;SDS011;6792;57.698;11.946;2023-09-19T13:18:44;4.22;;;0.60;;
13439;SDS011;6792;57.698;11.946;2023-09-19T13:21:16;7.65;;;1.00;;
13439;SDS011;6792;57.698;11.946;2023-09-19T13:23:52;6.17;;;0.90;;
13439;SDS011;6792;57.698;11.946;2023-09-19T13:26:25;6.78;;;1.07;;
13439;SDS011;6792;57.698;11.946;2023-09-19T13:28:54;1.98;;;0.82;;
13439;SDS011;6792;57.698;11.946;2023-09-19T13:31:24;4.25;;;0.90;;
13439;SDS011;6792;57.698;11.946;2023-09-19T13:33:53;2.95;;;0.95;;
13439;SDS011;6792;57.698;11.946;2023-09-19T13:36:23;3.20;;;0.60;;
13439;SDS011;6792;57.698;11.946;2023-09-19T13:38:53;1.92;;;0.60;;
13439;SDS011;6792;57.698;11.946;2023-09-19T13:41:22;4.25;;;0.90;;
13439;SDS011;6792;57.698;11.946;2023-09-19T13:43:53;2.15;;;0.65;;
13439;SDS011;6792;57.698;11.946;2023-09-19T13:46:23;2.77;;;0.60;;
13439;SDS011;6792;57.698;11.946;2023-09-19T13:48:54;6.12;;;0.65;;
13439;SDS011;6792;57.698;11.946;2023-09-19T13:51:25;5.85;;;1.02;;
13439;SDS011;6792;57.698;11.946;2023-09-19T13:53:55;3.25;;;0.68;;
13439;SDS011;6792;57.698;11.946;2023-09-19T13:56:25;2.65;;;0.78;;
13439;SDS011;6792;57.698;11.946;2023-09-19T13:58:54;2.85;;;0.53;;
13439;SDS011;6792;57.698;11.946;2023-09-19T14:01:24;4.55;;;0.80;;
13439;SDS011;6792;57.698;11.946;2023-09-19T14:03:53;2.37;;;0.80;;
13439;SDS011;6792;57.698;11.946;2023-09-19T14:06:23;2.80;;;0.70;;
13439;SDS011;6792;57.698;11.946;2023-09-19T14:08:52;2.77;;;0.70;;
13439;SDS011;6792;57.698;11.946;2023-09-19T14:11:21;5.22;;;0.82;;
13439;SDS011;6792;57.698;11.946;2023-09-19T14:13:51;3.52;;;0.98;;
13439;SDS011;6792;57.698;11.946;2023-09-19T14:16:21;3.17;;;0.90;;
13439;SDS011;6792;57.698;11.946;2023-09-19T14:18:51;4.40;;;0.72;;
13439;SDS011;6792;57.698;11.946;2023-09-19T14:21:20;4.53;;;0.85;;
13439;SDS011;6792;57.698;11.946;2023-09-19T14:23:49;6.95;;;1.17;;
13439;SDS011;6792;57.698;11.946;2023-09-19T14:26:20;7.03;;;1.22;;
13439;SDS011;6792;57.698;11.946;2023-09-19T14:28:50;5.30;;;0.95;;
13439;SDS011;6792;57.698;11.946;2023-09-19T14:31:19;3.33;;;1.10;;
13439;SDS011;6792;57.698;11.946;2023-09-19T14:33:53;5.33;;;1.00;;
13439;SDS011;6792;57.698;11.946;2023-09-19T14:36:23;3.35;;;0.60;;
13439;SDS011;6792;57.698;11.946;2023-09-19T14:38:53;2.95;;;0.60;;
13439;SDS011;6792;57.698;11.946;2023-09-19T14:41:23;4.37;;;0.68;;
13439;SDS011;6792;57.698;11.946;2023-09-19T14:43:52;4.85;;;0.90;;
13439;SDS011;6792;57.698;11.946;2023-09-19T14:46:22;5.40;;;0.90;;
13439;SDS011;6792;57.698;11.946;2023-09-19T14:48:51;3.10;;;0.80;;
13439;SDS011;6792;57.698;11.946;2023-09-19T14:51:20;3.35;;;0.88;;
13439;SDS011;6792;57.698;11.946;2023-09-19T14:53:49;3.83;;;0.98;;
13439;SDS011;6792;57.698;11.946;2023-09-19T14:56:18;5.90;;;1.17;;
13439;SDS011;6792;57.698;11.946;2023-09-19T14:58:48;7.60;;;1.15;;
13439;SDS011;6792;57.698;11.946;2023-09-19T15:01:17;6.37;;;1.50;;
13439;SDS011;6792;57.698;11.946;2023-09-19T15:03:46;10.13;;;1.30;;
13439;SDS011;6792;57.698;11.946;2023-09-19T15:06:16;5.58;;;0.90;;
13439;SDS011;6792;57.698;11.946;2023-09-19T15:08:46;2.50;;;0.75;;
13439;SDS011;6792;57.698;11.946;2023-09-19T15:11:17;4.97;;;1.05;;
13439;SDS011;6792;57.698;11.946;2023-09-19T15:13:47;4.00;;;1.17;;
13439;SDS011;6792;57.698;11.946;2023-09-19T15:16:18;4.92;;;1.20;;
13439;SDS011;6792;57.698;11.946;2023-09-19T15:18:47;3.47;;;1.20;;
13439;SDS011;6792;57.698;11.946;2023-09-19T15:21:18;4.10;;;1.00;;
13439;SDS011;6792;57.698;11.946;2023-09-19T15:23:47;6.62;;;0.82;;
13439;SDS011;6792;57.698;11.946;2023-09-19T15:26:16;3.55;;;1.15;;